createdAt,value
2023-05-07T00:01:06.899Z,83.18
2023-05-07T00:03:34.937Z,82.28
2023-05-07T00:06:05.424Z,80.50
2023-05-07T00:08:33.453Z,81.87
2023-05-07T00:11:01.318Z,81.47
2023-05-07T00:13:31.659Z,83.83
2023-05-07T00:16:00.895Z,83.34
2023-05-07T00:18:28.681Z,83.76
2023-05-07T00:20:57.078Z,83.37
2023-05-07T00:23:25.332Z,83.03
2023-05-07T00:25:55.187Z,82.89
2023-05-07T00:28:22.896Z,83.10
2023-05-07T00:30:50.915Z,84.18
2023-05-07T00:33:21.621Z,82.71
2023-05-07T00:35:49.793Z,83.62
2023-05-07T00:38:17.802Z,82.62
2023-05-07T00:40:46.385Z,81.73
2023-05-07T00:43:14.177Z,81.41
2023-05-07T00:45:42.211Z,82.17
2023-05-07T00:48:10.149Z,83.82
2023-05-07T00:50:39.346Z,84.16
2023-05-07T00:53:08.374Z,82.80
2023-05-07T00:55:37.892Z,86.28
2023-05-07T00:58:06.712Z,86.23
2023-05-07T01:00:34.605Z,84.44
2023-05-07T01:03:02.598Z,86.07
2023-05-07T01:05:32.037Z,86.21
2023-05-07T01:08:03.165Z,84.53
2023-05-07T01:10:33.354Z,84.86
2023-05-07T01:13:02.675Z,85.78
2023-05-07T01:15:30.785Z,84.59
2023-05-07T01:17:59.129Z,85.06
2023-05-07T01:20:33.514Z,84.47
2023-05-07T01:23:04.587Z,82.81
2023-05-07T01:25:32.599Z,82.59
2023-05-07T01:28:03.190Z,84.61
2023-05-07T01:30:36.754Z,85.49
2023-05-07T01:33:10.974Z,84.83
2023-05-07T01:35:46.082Z,83.49
2023-05-07T01:38:15.825Z,86.42
2023-05-07T01:40:43.974Z,86.42
2023-05-07T01:43:12.732Z,86.04
2023-05-07T01:45:42.211Z,86.00
2023-05-07T01:48:11.974Z,86.79
2023-05-07T01:50:40.919Z,86.82
2023-05-07T01:53:08.870Z,86.07
2023-05-07T01:55:38.780Z,84.12
2023-05-07T01:58:06.790Z,84.64
2023-05-07T02:00:34.846Z,85.03
2023-05-07T02:03:02.986Z,83.76
2023-05-07T02:05:41.979Z,83.71
2023-05-07T02:08:35.842Z,83.60
2023-05-07T02:11:05.278Z,83.78
2023-05-07T02:13:34.776Z,83.61
2023-05-07T02:16:03.415Z,86.05
2023-05-07T02:18:31.577Z,87.34
2023-05-07T02:20:59.826Z,88.22
2023-05-07T02:23:27.628Z,86.94
2023-05-07T02:25:55.765Z,87.10
2023-05-07T02:28:24.974Z,86.52
2023-05-07T02:31:01.537Z,84.41
2023-05-07T02:33:31.654Z,83.54
2023-05-07T02:36:08.154Z,84.30
2023-05-07T02:38:39.670Z,86.32
2023-05-07T02:41:07.671Z,86.53
2023-05-07T02:43:36.962Z,86.36
2023-05-07T02:46:06.242Z,84.83
2023-05-07T02:48:36.995Z,85.35
2023-05-07T02:51:06.398Z,87.86
2023-05-07T02:53:35.604Z,86.78
2023-05-07T02:56:03.916Z,86.43
2023-05-07T02:58:31.777Z,87.18
2023-05-07T03:01:02.560Z,86.38
2023-05-07T03:03:44.063Z,85.16
2023-05-07T03:06:11.992Z,84.86
2023-05-07T03:08:39.906Z,88.07
2023-05-07T03:11:07.849Z,87.76
2023-05-07T03:13:35.750Z,90.63
2023-05-07T03:16:05.114Z,91.16
2023-05-07T03:18:33.122Z,89.46
2023-05-07T03:21:00.962Z,88.58
2023-05-07T03:23:28.809Z,90.19
2023-05-07T03:25:56.526Z,90.50
2023-05-07T03:28:24.623Z,88.93
2023-05-07T03:30:58.029Z,88.35
2023-05-07T03:33:28.373Z,86.78
2023-05-07T03:35:56.801Z,87.58
2023-05-07T03:38:27.094Z,88.22
2023-05-07T03:40:55.662Z,87.00
2023-05-07T03:43:23.717Z,87.82
2023-05-07T03:45:59.295Z,88.29
2023-05-07T03:48:31.060Z,89.38
2023-05-07T03:51:00.898Z,89.92
2023-05-07T03:53:32.955Z,88.39
2023-05-07T03:56:01.173Z,87.03
2023-05-07T03:58:32.233Z,86.19
2023-05-07T04:01:04.728Z,88.39
2023-05-07T04:03:36.344Z,89.23
2023-05-07T04:06:05.510Z,89.57
2023-05-07T04:08:35.992Z,92.19
2023-05-07T04:11:05.426Z,91.74
2023-05-07T04:13:36.050Z,90.28
2023-05-07T04:16:07.793Z,89.00
2023-05-07T04:18:39.005Z,89.75
2023-05-07T04:21:07.441Z,89.85
2023-05-07T04:23:38.129Z,88.11
2023-05-07T04:26:10.046Z,87.78
2023-05-07T04:28:41.569Z,87.36
2023-05-07T04:31:09.639Z,87.20
2023-05-07T04:33:40.677Z,89.13
2023-05-07T04:36:12.317Z,91.64
2023-05-07T04:38:49.620Z,93.04
2023-05-07T04:41:19.286Z,92.25
2023-05-07T04:43:47.050Z,90.16
2023-05-07T04:46:19.246Z,88.03
2023-05-07T04:48:48.912Z,87.94
2023-05-07T04:51:17.471Z,86.76
2023-05-07T04:53:45.703Z,86.38
2023-05-07T04:56:13.564Z,85.63
2023-05-07T04:58:47.037Z,85.32
2023-05-07T05:01:16.032Z,86.35
2023-05-07T05:03:43.913Z,88.84
2023-05-07T05:06:14.163Z,89.19
2023-05-07T05:08:45.835Z,88.64
2023-05-07T05:11:14.154Z,89.22
2023-05-07T05:13:42.124Z,88.15
2023-05-07T05:16:18.035Z,87.25
2023-05-07T05:18:46.551Z,86.02
2023-05-07T05:21:18.427Z,85.10
2023-05-07T05:23:55.855Z,83.80
2023-05-07T05:26:26.876Z,84.32
2023-05-07T05:28:56.967Z,85.86
2023-05-07T05:31:28.030Z,89.96
2023-05-07T05:33:56.567Z,90.62
2023-05-07T05:36:25.772Z,89.59
2023-05-07T05:38:57.513Z,86.72
2023-05-07T05:41:25.946Z,83.34
2023-05-07T05:43:54.568Z,82.34
2023-05-07T05:46:23.009Z,80.99
2023-05-07T05:48:52.892Z,82.18
2023-05-07T05:51:20.728Z,81.35
2023-05-07T05:53:49.995Z,80.98
2023-05-07T05:56:18.538Z,79.08
2023-05-07T05:58:46.577Z,82.83
2023-05-07T06:01:14.593Z,81.30
2023-05-07T06:03:43.044Z,80.90
2023-05-07T06:06:16.276Z,80.33
2023-05-07T06:08:48.304Z,79.46
2023-05-07T06:11:23.243Z,78.08
2023-05-07T06:13:51.521Z,78.61
2023-05-07T06:16:19.818Z,77.48
2023-05-07T06:18:48.285Z,77.40
2023-05-07T06:21:17.539Z,77.27
2023-05-07T06:23:45.623Z,76.32
2023-05-07T06:26:13.581Z,77.81
2023-05-07T06:28:46.184Z,77.10
2023-05-07T06:31:17.012Z,77.65
2023-05-07T06:33:50.807Z,76.82
2023-05-07T06:36:19.319Z,76.45
2023-05-07T06:38:47.946Z,76.59
2023-05-07T06:41:17.005Z,77.55
2023-05-07T06:43:46.832Z,76.17
2023-05-07T06:46:47.097Z,72.59
2023-05-07T06:49:16.059Z,71.85
2023-05-07T06:51:44.701Z,70.72
2023-05-07T06:54:12.774Z,70.08
2023-05-07T06:56:43.025Z,68.02
2023-05-07T06:59:12.345Z,68.89
2023-05-07T07:01:42.434Z,69.34
2023-05-07T07:04:12.293Z,68.30
2023-05-07T07:06:42.552Z,67.51
2023-05-07T07:09:13.101Z,66.79
2023-05-07T07:11:42.105Z,66.17
2023-05-07T07:14:14.178Z,66.24
2023-05-07T07:16:47.830Z,66.07
2023-05-07T07:19:17.255Z,64.51
2023-05-07T07:21:49.185Z,65.52
2023-05-07T07:24:21.943Z,64.35
2023-05-07T07:26:52.791Z,65.27
2023-05-07T07:29:23.619Z,63.43
2023-05-07T07:31:51.669Z,63.29
2023-05-07T07:34:21.286Z,61.76
2023-05-07T07:36:49.949Z,60.81
2023-05-07T07:39:19.794Z,60.50
2023-05-07T07:42:01.024Z,58.34
2023-05-07T07:44:32.543Z,59.05
2023-05-07T07:47:06.285Z,59.41
2023-05-07T07:49:34.825Z,58.90
2023-05-07T07:52:06.858Z,57.84
2023-05-07T07:54:37.803Z,57.61
2023-05-07T07:57:07.547Z,60.12
2023-05-07T07:59:39.144Z,57.69
2023-05-07T08:02:09.889Z,57.86
2023-05-07T08:04:38.600Z,56.79
2023-05-07T08:07:10.823Z,56.09
2023-05-07T08:09:42.861Z,55.70
2023-05-07T08:12:11.948Z,56.04
2023-05-07T08:14:46.304Z,56.72
2023-05-07T08:17:18.629Z,54.72
2023-05-07T08:19:48.672Z,57.74
2023-05-07T08:22:18.698Z,58.07
2023-05-07T08:24:46.852Z,54.30
2023-05-07T08:27:23.403Z,54.50
2023-05-07T08:30:00.247Z,54.42
2023-05-07T08:32:30.301Z,55.36
2023-05-07T08:34:58.888Z,56.34
2023-05-07T08:37:26.770Z,56.47
2023-05-07T08:39:57.131Z,55.54
2023-05-07T08:42:32.926Z,53.02
2023-05-07T08:45:06.663Z,52.62
2023-05-07T08:47:48.406Z,50.96
2023-05-07T08:50:20.151Z,51.32
2023-05-07T08:52:49.358Z,50.13
2023-05-07T08:55:19.304Z,51.61
2023-05-07T08:57:47.924Z,46.40
2023-05-07T09:00:19.344Z,50.20
2023-05-07T09:02:51.439Z,48.95
2023-05-07T09:05:19.953Z,47.83
2023-05-07T09:07:48.803Z,45.87
2023-05-07T09:10:17.882Z,45.94
2023-05-07T09:12:49.349Z,45.33
2023-05-07T09:15:20.374Z,45.35
2023-05-07T09:17:48.407Z,43.36
2023-05-07T09:20:16.429Z,45.31
2023-05-07T09:22:45.260Z,43.80
2023-05-07T09:25:16.421Z,44.84
2023-05-07T09:27:44.419Z,44.24
2023-05-07T09:30:13.406Z,44.56
2023-05-07T09:32:43.153Z,42.97
2023-05-07T09:35:18.743Z,42.69
2023-05-07T09:37:51.596Z,41.82
2023-05-07T09:40:24.023Z,42.59
2023-05-07T09:42:53.006Z,41.42
2023-05-07T09:45:26.738Z,42.30
2023-05-07T09:47:58.806Z,44.10
2023-05-07T09:50:30.614Z,42.07
2023-05-07T09:52:59.813Z,41.92
2023-05-07T09:55:29.520Z,40.96
2023-05-07T09:57:59.482Z,41.76
2023-05-07T10:00:30.964Z,43.45
2023-05-07T10:03:11.371Z,42.07
2023-05-07T10:06:00.593Z,43.30
2023-05-07T10:08:31.545Z,42.97
2023-05-07T10:11:02.118Z,42.80
2023-05-07T10:13:33.829Z,42.00
2023-05-07T10:16:05.358Z,41.94
2023-05-07T10:18:42.538Z,41.74
2023-05-07T10:21:19.950Z,41.76
2023-05-07T10:23:52.308Z,40.79
2023-05-07T10:26:24.357Z,41.40
2023-05-07T10:28:58.517Z,40.88
2023-05-07T10:31:47.160Z,39.71
2023-05-07T10:34:24.219Z,40.69
2023-05-07T10:36:54.192Z,42.60
2023-05-07T10:39:24.093Z,42.26
2023-05-07T10:41:52.411Z,41.73
2023-05-07T10:44:30.590Z,42.33
2023-05-07T10:47:10.192Z,43.85
2023-05-07T10:50:25.091Z,47.36
2023-05-07T10:53:25.099Z,48.00
2023-05-07T10:56:28.837Z,46.91
2023-05-07T10:59:42.871Z,46.74
2023-05-07T11:02:22.918Z,47.73
2023-05-07T11:05:24.908Z,46.14
2023-05-07T11:08:13.053Z,49.03
2023-05-07T11:10:52.692Z,48.60
2023-05-07T11:13:46.536Z,46.78
2023-05-07T11:16:28.996Z,45.30
2023-05-07T11:19:16.151Z,49.91
2023-05-07T11:21:50.406Z,47.26
2023-05-07T11:24:48.537Z,47.06
2023-05-07T11:27:16.710Z,47.98
2023-05-07T11:29:49.118Z,49.16
2023-05-07T11:32:17.414Z,50.11
2023-05-07T11:34:54.003Z,51.02
2023-05-07T11:37:24.638Z,51.51
2023-05-07T11:40:08.979Z,49.35
2023-05-07T11:42:38.432Z,50.84
2023-05-07T11:45:08.286Z,52.17
2023-05-07T11:47:36.508Z,51.14
2023-05-07T11:50:11.520Z,50.47
2023-05-07T11:52:41.139Z,50.04
2023-05-07T11:55:10.113Z,50.00
2023-05-07T11:57:38.087Z,50.86
2023-05-07T12:00:07.683Z,51.32
2023-05-07T12:05:18.675Z,50.00
2023-05-07T12:07:47.948Z,49.79
2023-05-07T12:10:16.375Z,49.63
2023-05-07T12:12:48.284Z,48.28
2023-05-07T12:15:18.237Z,49.04
2023-05-07T12:17:46.368Z,50.31
2023-05-07T12:20:14.698Z,49.96
2023-05-07T12:22:43.145Z,49.40
2023-05-07T12:25:12.791Z,48.18
2023-05-07T12:27:41.264Z,48.63
2023-05-07T12:30:12.411Z,48.72
2023-05-07T12:32:40.431Z,51.00
2023-05-07T12:35:09.243Z,48.78
2023-05-07T12:37:37.803Z,51.66
2023-05-07T12:40:07.271Z,52.34
2023-05-07T12:42:38.346Z,54.15
2023-05-07T12:45:12.255Z,55.16
2023-05-07T12:47:40.837Z,54.82
2023-05-07T12:50:09.375Z,56.47
2023-05-07T12:52:38.367Z,59.74
2023-05-07T12:55:07.512Z,61.09
2023-05-07T12:57:41.993Z,64.62
2023-05-07T13:00:10.952Z,65.36
2023-05-07T13:02:40.801Z,71.86
2023-05-07T13:05:11.440Z,72.70
2023-05-07T13:07:39.819Z,73.80
2023-05-07T13:10:09.008Z,77.08
2023-05-07T13:12:36.988Z,74.02
2023-05-07T13:15:07.471Z,70.05
2023-05-07T13:17:35.579Z,68.22
2023-05-07T13:20:03.639Z,67.90
2023-05-07T13:22:31.500Z,66.29
2023-05-07T13:24:59.324Z,66.24
2023-05-07T13:27:27.061Z,65.37
2023-05-07T13:29:54.904Z,70.40
2023-05-07T13:32:24.260Z,71.75
2023-05-07T13:34:52.290Z,74.79
2023-05-07T13:37:20.126Z,78.31
2023-05-07T13:39:50.486Z,77.88
2023-05-07T13:42:18.939Z,78.54
2023-05-07T13:44:47.023Z,79.72
2023-05-07T13:47:15.228Z,79.28
2023-05-07T13:49:44.680Z,77.99
2023-05-07T13:52:14.121Z,76.74
2023-05-07T13:54:42.574Z,75.45
2023-05-07T13:57:10.625Z,75.12
2023-05-07T13:59:40.904Z,74.96
2023-05-07T14:02:10.118Z,76.06
2023-05-07T14:04:39.442Z,74.94
2023-05-07T14:07:09.293Z,74.72
2023-05-07T14:09:40.128Z,72.35
2023-05-07T14:12:09.221Z,70.64
2023-05-07T14:14:37.151Z,68.57
2023-05-07T14:17:05.521Z,72.51
2023-05-07T14:19:34.010Z,76.31
2023-05-07T14:22:03.883Z,77.93
2023-05-07T14:24:38.760Z,79.01
2023-05-07T14:27:09.227Z,79.66
2023-05-07T14:29:37.279Z,78.59
2023-05-07T14:32:06.257Z,79.93
2023-05-07T14:34:36.158Z,81.90
2023-05-07T14:37:05.675Z,82.13
2023-05-07T14:39:34.910Z,82.22
2023-05-07T14:42:03.121Z,81.68
2023-05-07T14:44:32.346Z,81.61
2023-05-07T14:47:02.456Z,82.39
2023-05-07T14:49:30.854Z,81.45
2023-05-07T14:52:00.168Z,80.47
2023-05-07T14:54:28.234Z,79.45
2023-05-07T14:56:57.761Z,79.71
2023-05-07T14:59:26.103Z,78.58
2023-05-07T15:01:54.078Z,78.82
2023-05-07T15:04:21.983Z,81.81
2023-05-07T15:06:50.000Z,84.17
2023-05-07T15:09:18.016Z,87.06
2023-05-07T15:11:45.830Z,90.33
2023-05-07T15:14:17.206Z,91.05
2023-05-07T15:16:46.543Z,89.85
2023-05-07T15:19:15.969Z,87.05
2023-05-07T15:21:43.849Z,85.49
2023-05-07T15:24:11.662Z,83.86
2023-05-07T15:26:43.791Z,82.81
2023-05-07T15:29:11.741Z,83.48
2023-05-07T15:31:41.252Z,85.25
2023-05-07T15:34:09.205Z,83.36
2023-05-07T15:36:37.108Z,79.63
2023-05-07T15:39:05.461Z,79.14
2023-05-07T15:41:33.416Z,83.24
2023-05-07T15:44:01.513Z,85.67
2023-05-07T15:46:29.459Z,83.32
2023-05-07T15:48:58.891Z,83.35
2023-05-07T15:51:26.943Z,81.63
2023-05-07T15:53:54.781Z,84.52
2023-05-07T15:56:22.622Z,88.06
2023-05-07T15:58:50.433Z,89.84
2023-05-07T16:01:18.486Z,89.72
2023-05-07T16:03:46.822Z,91.17
2023-05-07T16:06:16.633Z,90.77
2023-05-07T16:08:44.951Z,88.62
2023-05-07T16:11:12.745Z,86.19
2023-05-07T16:13:40.782Z,85.56
2023-05-07T16:16:08.681Z,86.11
2023-05-07T16:18:37.037Z,86.41
2023-05-07T16:21:07.925Z,85.67
2023-05-07T16:23:37.550Z,84.73
2023-05-07T16:26:06.036Z,83.71
2023-05-07T16:28:34.011Z,85.75
2023-05-07T16:31:02.109Z,85.95
2023-05-07T16:33:29.915Z,84.95
2023-05-07T16:35:57.712Z,85.29
2023-05-07T16:38:28.553Z,85.60
2023-05-07T16:40:57.721Z,85.78
2023-05-07T16:43:25.773Z,86.28
2023-05-07T16:45:53.720Z,85.63
2023-05-07T16:48:23.765Z,88.45
2023-05-07T16:50:51.638Z,90.10
2023-05-07T16:53:21.495Z,91.34
2023-05-07T16:55:49.344Z,89.23
2023-05-07T16:58:18.572Z,90.09
2023-05-07T17:00:50.501Z,90.23
2023-05-07T17:03:19.585Z,88.46
2023-05-07T17:05:50.075Z,88.42
2023-05-07T17:08:17.938Z,86.33
2023-05-07T17:10:46.159Z,84.11
2023-05-07T17:13:14.244Z,83.13
2023-05-07T17:15:45.071Z,85.32
2023-05-07T17:18:13.099Z,88.87
2023-05-07T17:20:41.052Z,89.94
2023-05-07T17:23:08.958Z,88.18
2023-05-07T17:25:37.552Z,87.49
2023-05-07T17:28:07.439Z,87.98
2023-05-07T17:30:35.323Z,89.33
2023-05-07T17:33:19.321Z,89.75
2023-05-07T17:35:48.418Z,87.45
2023-05-07T17:38:16.250Z,86.70
2023-05-07T17:40:44.188Z,86.47
2023-05-07T17:43:12.021Z,86.26
2023-05-07T17:45:39.892Z,85.13
2023-05-07T17:48:09.144Z,87.28
2023-05-07T17:50:36.999Z,87.13
2023-05-07T17:53:06.018Z,87.05
2023-05-07T17:55:33.959Z,87.44
2023-05-07T17:58:03.204Z,87.15
2023-05-07T18:00:31.101Z,86.80
2023-05-07T18:03:00.516Z,89.46
2023-05-07T18:05:30.431Z,91.79
2023-05-07T18:07:58.340Z,92.01
2023-05-07T18:10:26.801Z,93.77
2023-05-07T18:12:54.780Z,93.37
2023-05-07T18:15:22.731Z,92.71
2023-05-07T18:17:50.861Z,95.09
2023-05-07T18:20:18.877Z,93.74
2023-05-07T18:22:50.112Z,93.12
2023-05-07T18:25:18.150Z,92.67
2023-05-07T18:27:48.051Z,92.24
2023-05-07T18:30:16.114Z,93.68
2023-05-07T18:32:44.023Z,93.32
2023-05-07T18:35:12.042Z,93.08
2023-05-07T18:37:39.931Z,91.98
2023-05-07T18:40:10.702Z,90.52
2023-05-07T18:42:38.800Z,88.71
2023-05-07T18:45:07.692Z,88.57
2023-05-07T18:47:35.631Z,88.02
2023-05-07T18:50:04.628Z,90.13
2023-05-07T18:52:33.650Z,90.31
2023-05-07T18:55:02.567Z,89.49
2023-05-07T18:57:32.209Z,88.06
2023-05-07T19:00:00.038Z,87.48
2023-05-07T19:02:27.983Z,88.53
2023-05-07T19:04:56.007Z,89.60
2023-05-07T19:07:23.900Z,89.90
2023-05-07T19:10:04.345Z,90.41
2023-05-07T19:12:35.043Z,90.05
2023-05-07T19:15:02.976Z,89.66
2023-05-07T19:17:30.934Z,90.11
2023-05-07T19:19:58.971Z,90.09
2023-05-07T19:22:26.914Z,89.29
2023-05-07T19:24:55.004Z,88.75
2023-05-07T19:27:22.892Z,88.33
2023-05-07T19:29:52.252Z,88.68
2023-05-07T19:32:21.322Z,89.06
2023-05-07T19:34:49.488Z,88.96
2023-05-07T19:37:24.058Z,88.60
2023-05-07T19:39:53.737Z,89.87
2023-05-07T19:42:21.675Z,90.61
2023-05-07T19:44:53.435Z,89.85
2023-05-07T19:47:21.280Z,88.90
2023-05-07T19:49:49.206Z,89.53
2023-05-07T19:52:19.258Z,89.85
2023-05-07T19:54:47.154Z,90.35
2023-05-07T19:57:16.835Z,89.75
2023-05-07T19:59:44.790Z,88.87
2023-05-07T20:02:15.216Z,88.36
2023-05-07T20:04:43.375Z,88.00
2023-05-07T20:07:11.283Z,87.98
2023-05-07T20:09:39.227Z,88.15
2023-05-07T20:12:07.870Z,87.23
2023-05-07T20:14:35.901Z,87.67
2023-05-07T20:17:03.732Z,87.56
2023-05-07T20:19:32.918Z,88.10
2023-05-07T20:22:00.672Z,88.00
2023-05-07T20:24:28.481Z,89.80
2023-05-07T20:26:56.491Z,93.07
2023-05-07T20:29:24.333Z,94.68
2023-05-07T20:31:52.208Z,95.70
2023-05-07T20:34:20.339Z,95.89
2023-05-07T20:36:49.586Z,95.46
2023-05-07T20:39:17.521Z,94.40
2023-05-07T20:41:45.475Z,93.37
2023-05-07T20:44:13.429Z,92.62
2023-05-07T20:46:41.356Z,94.04
2023-05-07T20:49:09.151Z,96.00
2023-05-07T20:51:37.337Z,95.34
2023-05-07T20:54:08.571Z,95.25
2023-05-07T20:56:36.438Z,94.97
2023-05-07T20:59:04.366Z,97.27
2023-05-07T21:01:34.684Z,99.97
2023-05-07T21:04:02.805Z,100.00
2023-05-07T21:06:30.793Z,98.89
2023-05-07T21:08:58.741Z,96.79
2023-05-07T21:11:28.002Z,95.05
2023-05-07T21:13:55.847Z,94.31
2023-05-07T21:16:23.774Z,93.53
2023-05-07T21:18:54.756Z,93.32
2023-05-07T21:21:22.625Z,95.10
2023-05-07T21:23:50.671Z,96.34
2023-05-07T21:26:19.596Z,96.30
2023-05-07T21:28:48.690Z,97.60
2023-05-07T21:31:16.837Z,96.50
2023-05-07T21:33:45.508Z,95.32
2023-05-07T21:36:13.448Z,95.19
2023-05-07T21:38:41.650Z,94.54
2023-05-07T21:41:12.887Z,94.69
2023-05-07T21:43:40.712Z,96.94
2023-05-07T21:46:10.117Z,97.47
2023-05-07T21:48:39.673Z,96.25
2023-05-07T21:51:08.906Z,96.36
2023-05-07T21:53:38.699Z,97.65
2023-05-07T21:56:07.069Z,97.22
2023-05-07T21:58:35.139Z,97.09
2023-05-07T22:01:02.949Z,96.39
2023-05-07T22:03:32.561Z,95.67
2023-05-07T22:06:03.168Z,94.71
2023-05-07T22:08:31.113Z,97.39
2023-05-07T22:10:59.203Z,96.95
2023-05-07T22:13:27.164Z,97.03
2023-05-07T22:15:58.098Z,96.34
2023-05-07T22:18:26.473Z,96.13
2023-05-07T22:20:55.796Z,96.27
2023-05-07T22:23:23.696Z,96.91
2023-05-07T22:25:51.545Z,96.65
2023-05-07T22:28:19.454Z,95.82
2023-05-07T22:30:47.490Z,95.28
2023-05-07T22:33:15.426Z,95.93
2023-05-07T22:35:43.543Z,96.51
2023-05-07T22:38:12.899Z,97.32
2023-05-07T22:40:43.082Z,97.77
2023-05-07T22:43:10.923Z,99.20
2023-05-07T22:45:38.801Z,100.00
2023-05-07T22:48:07.870Z,100.00
2023-05-07T22:50:37.749Z,100.00
2023-05-07T22:53:06.570Z,100.00
2023-05-07T22:55:35.851Z,100.00
2023-05-07T22:58:03.785Z,100.00
2023-05-07T23:00:31.916Z,100.00
2023-05-07T23:03:00.064Z,100.00
2023-05-07T23:05:28.063Z,100.00
2023-05-07T23:07:56.036Z,100.00
2023-05-07T23:10:23.922Z,100.00
2023-05-07T23:12:53.214Z,100.00
2023-05-07T23:15:21.374Z,100.00
2023-05-07T23:17:49.572Z,100.00
2023-05-07T23:20:17.480Z,100.00
2023-05-07T23:22:45.355Z,100.00
2023-05-07T23:25:13.140Z,100.00
2023-05-07T23:27:43.435Z,100.00
2023-05-07T23:30:14.308Z,100.00
2023-05-07T23:32:42.534Z,100.00
2023-05-07T23:35:10.736Z,100.00
2023-05-07T23:37:39.136Z,100.00
2023-05-07T23:40:08.152Z,100.00
2023-05-07T23:42:36.525Z,100.00
2023-05-07T23:45:05.238Z,100.00
2023-05-07T23:47:34.431Z,100.00
2023-05-07T23:50:02.258Z,100.00
2023-05-07T23:52:30.311Z,100.00
2023-05-07T23:54:58.190Z,100.00
2023-05-07T23:57:26.003Z,100.00
2023-05-07T23:59:53.924Z,100.00
